Time;durP1;ratioP1;P1;durP2;ratioP2;P2;SDS_P1;SDS_P2;PMS_P1;PMS_P2;Temp;Humidity;BMP_temperature;BMP_pressure;BME280_temperature;BME280_humidity;BME280_pressure;Samples;Min_cycle;Max_cycle;Signal;HPM_P1;HPM_P2
2024/01/09 00:01:30;;;;;;;15.25;8.32;;;-4.90;99.90;;;;;;5004862;28;20042;-32
2024/01/09 00:03:56;;;;;;;16.05;8.93;;;-4.90;99.90;;;;;;5000153;28;20081;-34
2024/01/09 00:06:22;;;;;;;21.38;11.70;;;-4.90;99.90;;;;;;5007040;28;20471;-32
2024/01/09 00:08:47;;;;;;;15.20;9.50;;;-4.90;99.90;;;;;;4996339;28;20030;-32
2024/01/09 00:11:13;;;;;;;17.40;11.85;;;-4.90;99.90;;;;;;5007629;28;20160;-32
2024/01/09 00:13:40;;;;;;;17.88;10.00;;;-4.90;99.90;;;;;;4995010;28;20054;-32
2024/01/09 00:16:05;;;;;;;18.05;10.23;;;-4.90;99.90;;;;;;5004231;28;20022;-34
2024/01/09 00:18:31;;;;;;;15.90;8.90;;;-4.90;99.90;;;;;;5004961;28;20026;-33
2024/01/09 00:20:57;;;;;;;14.85;7.88;;;-4.90;99.90;;;;;;5000409;28;20022;-33
2024/01/09 00:23:22;;;;;;;12.82;8.50;;;-4.90;99.90;;;;;;4998095;28;20034;-32
2024/01/09 00:25:48;;;;;;;15.82;9.20;;;-4.90;99.90;;;;;;5005038;28;20033;-35
2024/01/09 00:28:13;;;;;;;19.08;10.50;;;-4.90;99.90;;;;;;4999644;28;20030;-33
2024/01/09 00:30:39;;;;;;;16.70;9.55;;;-4.90;99.90;;;;;;5004652;28;20016;-33
2024/01/09 00:33:05;;;;;;;19.10;10.13;;;-4.90;99.90;;;;;;5000700;28;20038;-35
2024/01/09 00:35:31;;;;;;;11.18;8.25;;;-4.90;99.90;;;;;;4997852;28;20408;-33
2024/01/09 00:37:56;;;;;;;16.08;9.35;;;-4.90;99.90;;;;;;5012560;28;20041;-34
2024/01/09 00:40:22;;;;;;;15.27;8.32;;;-5.00;99.90;;;;;;4999678;28;20033;-33
2024/01/09 00:42:47;;;;;;;21.08;9.20;;;-5.00;99.90;;;;;;4999324;28;20106;-33
2024/01/09 00:45:13;;;;;;;14.70;8.85;;;-5.00;99.90;;;;;;5004822;28;20492;-34
2024/01/09 00:47:39;;;;;;;20.63;11.05;;;-5.00;99.90;;;;;;5003943;28;20144;-35
2024/01/09 00:50:05;;;;;;;16.90;8.55;;;-5.10;99.90;;;;;;4999209;28;20517;-33
2024/01/09 00:52:30;;;;;;;19.10;10.32;;;-5.00;99.90;;;;;;4997717;28;20557;-32
2024/01/09 00:54:56;;;;;;;16.52;9.93;;;-5.10;99.90;;;;;;5003962;28;20057;-33
2024/01/09 00:57:22;;;;;;;16.75;10.80;;;-5.10;99.90;;;;;;5002541;28;20066;-33
2024/01/09 00:59:47;;;;;;;17.85;8.30;;;-5.10;99.90;;;;;;4997624;28;20056;-33
2024/01/09 01:02:13;;;;;;;20.85;9.93;;;-5.20;99.90;;;;;;5005421;28;20030;-32
2024/01/09 01:04:39;;;;;;;15.80;9.85;;;-5.20;99.90;;;;;;4995045;28;20026;-34
2024/01/09 01:07:05;;;;;;;13.77;8.98;;;-5.30;99.90;;;;;;5005488;28;20518;-36
2024/01/09 01:09:30;;;;;;;18.70;8.70;;;-5.40;99.90;;;;;;4999018;28;20097;-33
2024/01/09 01:11:56;;;;;;;15.05;8.32;;;-5.50;99.90;;;;;;5004006;28;20033;-34
2024/01/09 01:14:23;;;;;;;18.63;11.55;;;-5.60;99.90;;;;;;5004100;28;20033;-33
2024/01/09 01:16:49;;;;;;;19.50;10.55;;;-5.60;99.90;;;;;;4991925;28;20034;-32
2024/01/09 01:19:15;;;;;;;17.48;9.40;;;-5.60;99.90;;;;;;5008003;28;20026;-37
2024/01/09 01:21:40;;;;;;;17.27;9.30;;;-5.70;99.90;;;;;;4999595;28;20537;-33
2024/01/09 01:24:06;;;;;;;19.45;9.48;;;-5.70;99.90;;;;;;4998614;28;20116;-36
2024/01/09 01:26:32;;;;;;;19.92;10.23;;;-5.80;99.90;;;;;;5002968;28;20030;-32
2024/01/09 01:28:57;;;;;;;20.65;10.68;;;-5.80;99.90;;;;;;5003460;28;20748;-33
2024/01/09 01:31:23;;;;;;;15.43;9.43;;;-5.90;99.90;;;;;;4998922;28;20038;-33
2024/01/09 01:33:48;;;;;;;13.82;8.23;;;-5.90;99.90;;;;;;4998590;28;20033;-34
2024/01/09 01:36:15;;;;;;;20.63;11.32;;;-5.90;99.90;;;;;;5005595;28;20025;-33
2024/01/09 01:38:44;;;;;;;19.27;9.80;;;-5.90;99.90;;;;;;4998814;28;20459;-33
2024/01/09 01:41:10;;;;;;;17.20;8.77;;;-6.00;99.90;;;;;;5004233;28;20100;-35
2024/01/09 01:43:35;;;;;;;15.73;8.38;;;-5.90;99.90;;;;;;5007390;28;20522;-32
2024/01/09 01:46:04;;;;;;;19.38;10.50;;;-6.00;99.90;;;;;;5001037;28;20049;-33
2024/01/09 01:48:31;;;;;;;20.98;11.40;;;-6.00;99.90;;;;;;5000150;28;20053;-34
2024/01/09 01:50:58;;;;;;;14.68;8.10;;;-6.00;99.90;;;;;;4994919;28;20506;-33
2024/01/09 01:53:26;;;;;;;17.92;9.73;;;-6.00;99.90;;;;;;4977349;28;20037;-33
2024/01/09 01:55:52;;;;;;;17.45;10.38;;;-6.10;99.90;;;;;;5002202;28;20030;-38
2024/01/09 01:58:19;;;;;;;11.88;7.40;;;-6.10;99.90;;;;;;5006630;28;20550;-32
2024/01/09 02:00:44;;;;;;;14.10;8.82;;;-6.10;99.90;;;;;;4997023;28;20399;-34
2024/01/09 02:03:12;;;;;;;15.38;8.20;;;-6.00;99.90;;;;;;4999151;28;20025;-33
2024/01/09 02:05:38;;;;;;;14.57;8.00;;;-6.10;99.90;;;;;;5004745;28;20025;-33
2024/01/09 02:08:05;;;;;;;18.45;10.60;;;-6.20;99.90;;;;;;5007863;28;20475;-35
2024/01/09 02:10:31;;;;;;;20.02;10.82;;;-6.20;99.90;;;;;;5002295;28;20394;-34
2024/01/09 02:12:56;;;;;;;16.15;8.02;;;-6.20;99.90;;;;;;4988314;28;20125;-32
2024/01/09 02:15:22;;;;;;;21.10;10.63;;;-6.20;99.90;;;;;;4999220;28;20427;-32
2024/01/09 02:17:48;;;;;;;18.65;9.73;;;-6.20;99.90;;;;;;5001634;28;20037;-33
2024/01/09 02:20:13;;;;;;;14.35;7.72;;;-6.20;99.90;;;;;;5003371;28;20029;-33
2024/01/09 02:22:39;;;;;;;15.45;9.73;;;-6.20;99.90;;;;;;5003566;28;20104;-34
2024/01/09 02:25:05;;;;;;;19.42;11.27;;;-6.30;99.90;;;;;;5001727;28;20022;-36
2024/01/09 02:27:43;;;;;;;8.45;6.95;;;-6.20;99.90;;;;;;5001607;28;20064;-34
2024/01/09 02:30:09;;;;;;;19.00;9.73;;;-6.30;99.90;;;;;;4997617;28;20048;-34
2024/01/09 02:32:36;;;;;;;24.45;9.80;;;-6.30;99.90;;;;;;4999913;28;20733;-36
2024/01/09 02:35:02;;;;;;;16.73;7.97;;;-6.30;99.90;;;;;;5002115;28;20045;-34
2024/01/09 02:37:27;;;;;;;17.05;8.20;;;-6.40;99.90;;;;;;5005003;28;20476;-36
2024/01/09 02:39:57;;;;;;;15.30;8.80;;;-6.40;99.90;;;;;;5003800;28;20030;-34
2024/01/09 02:42:22;;;;;;;16.92;10.30;;;-6.40;99.90;;;;;;5000047;28;20033;-32
2024/01/09 02:44:53;;;;;;;13.13;8.05;;;-6.30;99.90;;;;;;5004701;28;20022;-32
2024/01/09 02:47:20;;;;;;;15.02;8.05;;;-6.30;99.90;;;;;;5002795;28;20113;-33
2024/01/09 02:49:46;;;;;;;14.45;8.32;;;-6.30;99.90;;;;;;4998987;28;20062;-33
2024/01/09 02:52:11;;;;;;;17.10;8.30;;;-6.30;99.90;;;;;;5001297;28;20577;-43
2024/01/09 02:54:37;;;;;;;14.40;8.50;;;-6.40;99.90;;;;;;5002712;28;20091;-42
2024/01/09 02:57:03;;;;;;;16.80;9.20;;;-6.40;99.90;;;;;;4996849;28;20043;-39
2024/01/09 02:59:28;;;;;;;15.93;8.18;;;-6.40;99.90;;;;;;5003704;28;20034;-42
2024/01/09 03:01:54;;;;;;;15.10;8.27;;;-6.40;99.90;;;;;;4993239;28;20088;-32
2024/01/09 03:04:20;;;;;;;12.38;7.25;;;-6.40;99.90;;;;;;5000171;28;20033;-32
2024/01/09 03:06:46;;;;;;;10.57;6.78;;;-6.40;99.90;;;;;;4998483;28;20022;-34
2024/01/09 03:09:11;;;;;;;14.82;7.80;;;-6.40;99.90;;;;;;5003887;28;20565;-33
2024/01/09 03:11:37;;;;;;;16.77;8.32;;;-6.40;99.90;;;;;;5006700;28;20548;-32
2024/01/09 03:14:03;;;;;;;17.23;8.48;;;-6.30;99.90;;;;;;5006860;28;20040;-33
2024/01/09 03:16:28;;;;;;;15.23;7.53;;;-6.20;99.90;;;;;;4998504;28;20029;-33
2024/01/09 03:18:54;;;;;;;16.33;9.10;;;-6.20;99.90;;;;;;5003180;28;20060;-32
2024/01/09 03:21:19;;;;;;;15.25;8.07;;;-6.20;99.90;;;;;;5008155;28;20385;-33
2024/01/09 03:23:45;;;;;;;13.10;7.90;;;-6.10;99.90;;;;;;5004122;28;20065;-33
2024/01/09 03:26:11;;;;;;;18.23;9.77;;;-6.10;99.90;;;;;;4997658;28;20041;-38
2024/01/09 03:28:37;;;;;;;12.88;8.35;;;-6.10;99.90;;;;;;5008442;28;20018;-33
2024/01/09 03:31:02;;;;;;;17.42;9.65;;;-6.10;99.90;;;;;;5003062;28;20032;-34
2024/01/09 03:33:28;;;;;;;17.40;9.27;;;-6.20;99.90;;;;;;5003959;28;20030;-38
2024/01/09 03:35:54;;;;;;;21.58;11.50;;;-6.20;99.90;;;;;;5011412;28;20517;-35
2024/01/09 03:38:19;;;;;;;22.35;10.57;;;-6.20;99.90;;;;;;5002261;28;20027;-33
2024/01/09 03:40:45;;;;;;;17.00;9.68;;;-6.20;99.90;;;;;;5002828;28;20509;-33
2024/01/09 03:43:11;;;;;;;13.95;9.02;;;-6.10;99.90;;;;;;5005415;28;20065;-34
2024/01/09 03:45:36;;;;;;;14.13;8.80;;;-6.10;99.90;;;;;;5009324;28;20073;-32
2024/01/09 03:48:02;;;;;;;18.92;10.63;;;-6.20;99.90;;;;;;5006696;28;20081;-33
2024/01/09 03:50:28;;;;;;;22.63;11.60;;;-6.10;99.90;;;;;;5004840;28;20029;-33
2024/01/09 03:52:53;;;;;;;18.40;9.23;;;-6.20;99.90;;;;;;5005120;28;20060;-38
2024/01/09 03:55:19;;;;;;;20.73;11.18;;;-6.10;99.90;;;;;;5003348;28;20480;-33
2024/01/09 03:57:45;;;;;;;19.52;10.15;;;-6.10;99.90;;;;;;4989475;28;20040;-34
2024/01/09 04:00:11;;;;;;;17.70;9.70;;;-6.10;99.90;;;;;;5001032;28;20081;-32
2024/01/09 04:02:38;;;;;;;15.50;8.18;;;-6.10;99.90;;;;;;5006260;28;20036;-40
2024/01/09 04:05:04;;;;;;;18.48;8.90;;;-6.10;99.90;;;;;;4996766;28;20484;-40
2024/01/09 04:07:30;;;;;;;18.52;10.65;;;-6.20;99.90;;;;;;5002867;28;20128;-41
2024/01/09 04:09:56;;;;;;;24.08;12.35;;;-6.20;99.90;;;;;;5000413;28;20019;-42
2024/01/09 04:12:22;;;;;;;20.23;10.32;;;-6.20;99.90;;;;;;5001421;28;20038;-33
2024/01/09 04:14:48;;;;;;;22.73;12.70;;;-6.20;99.90;;;;;;5002720;28;20057;-34
2024/01/09 04:17:15;;;;;;;18.05;10.35;;;-6.20;99.90;;;;;;4995577;28;20065;-34
2024/01/09 04:19:44;;;;;;;11.60;7.05;;;-6.20;99.90;;;;;;4986801;28;20033;-33
2024/01/09 04:22:10;;;;;;;20.02;10.63;;;-6.20;99.90;;;;;;4997901;28;20095;-34
2024/01/09 04:24:36;;;;;;;20.10;10.65;;;-6.20;99.90;;;;;;5002047;28;20029;-39
2024/01/09 04:27:10;;;;;;;18.80;10.63;;;-6.20;99.90;;;;;;4983506;28;20029;-33
2024/01/09 04:29:35;;;;;;;22.42;9.70;;;-6.20;99.90;;;;;;5000415;28;20028;-36
2024/01/09 04:32:02;;;;;;;19.02;9.55;;;-6.20;99.90;;;;;;4985175;28;20042;-37
2024/01/09 04:34:36;;;;;;;22.73;10.45;;;-6.10;99.90;;;;;;5003220;28;20034;-35
2024/01/09 04:37:03;;;;;;;21.92;9.52;;;-6.10;99.90;;;;;;4985851;28;20465;-32
2024/01/09 04:39:32;;;;;;;25.02;13.65;;;-6.10;99.90;;;;;;4999130;28;20415;-35
2024/01/09 04:41:59;;;;;;;15.05;8.82;;;-6.10;99.90;;;;;;4995901;28;20046;-34
2024/01/09 04:44:30;;;;;;;23.73;11.48;;;-6.10;99.90;;;;;;4998597;28;20025;-34
2024/01/09 04:46:57;;;;;;;13.68;9.07;;;-6.10;99.90;;;;;;4973980;28;20046;-34
2024/01/09 04:49:25;;;;;;;19.65;11.45;;;-6.10;99.90;;;;;;4991199;28;20030;-35
2024/01/09 04:52:00;;;;;;;;;;;-6.10;99.90;;;;;;5003622;28;21315;-36
2024/01/09 04:54:30;;;;;;;21.38;10.75;;;-6.10;99.90;;;;;;5002137;28;19917;-34
2024/01/09 04:56:55;;;;;;;19.75;10.52;;;-6.20;99.90;;;;;;5003396;28;20435;-36
2024/01/09 04:59:22;;;;;;;18.98;9.18;;;-6.20;99.90;;;;;;4996994;28;20100;-35
2024/01/09 05:01:53;;;;;;;16.85;9.35;;;-6.20;99.90;;;;;;4979879;28;20029;-33
2024/01/09 05:04:22;;;;;;;22.67;10.35;;;-6.20;99.90;;;;;;5002687;28;20018;-35
2024/01/09 05:06:50;;;;;;;13.85;8.63;;;-6.30;99.90;;;;;;4987970;28;20064;-34
2024/01/09 05:09:19;;;;;;;19.92;11.23;;;-6.30;99.90;;;;;;5006685;28;20045;-35
2024/01/09 05:11:44;;;;;;;26.00;12.88;;;-6.30;99.90;;;;;;5005597;28;20026;-41
2024/01/09 05:14:10;;;;;;;21.35;11.68;;;-6.30;99.90;;;;;;5000402;28;20034;-41
2024/01/09 05:16:36;;;;;;;26.13;12.85;;;-6.30;99.90;;;;;;4992934;28;20036;-40
2024/01/09 05:19:01;;;;;;;19.58;10.77;;;-6.30;99.90;;;;;;5000380;28;20062;-39
2024/01/09 05:21:30;;;;;;;18.92;9.85;;;-6.30;99.90;;;;;;5003183;28;20034;-40
2024/01/09 05:23:56;;;;;;;19.63;9.80;;;-6.30;99.90;;;;;;4998428;28;20034;-42
2024/01/09 05:26:22;;;;;;;17.20;10.02;;;-6.30;99.90;;;;;;5000000;28;20032;-42
2024/01/09 05:28:47;;;;;;;24.90;12.23;;;-6.30;99.90;;;;;;5002302;28;20036;-43
2024/01/09 05:31:13;;;;;;;18.90;8.95;;;-6.30;99.90;;;;;;4999565;28;20093;-41
2024/01/09 05:33:39;;;;;;;19.17;10.90;;;-6.30;99.90;;;;;;5001664;28;20029;-35
2024/01/09 05:36:06;;;;;;;9.23;7.00;;;-6.30;99.90;;;;;;4984073;28;20064;-36
2024/01/09 05:38:32;;;;;;;21.95;12.18;;;-6.30;99.90;;;;;;5003939;28;20022;-35
2024/01/09 05:40:58;;;;;;;21.70;10.93;;;-6.40;99.90;;;;;;5003441;28;20025;-34
2024/01/09 05:43:25;;;;;;;21.00;10.88;;;-6.40;99.90;;;;;;4997985;28;20022;-34
2024/01/09 05:45:50;;;;;;;16.52;9.70;;;-6.50;99.90;;;;;;5003053;28;20062;-34
2024/01/09 05:48:22;;;;;;;20.90;10.35;;;-6.50;99.90;;;;;;5000727;28;20474;-37
2024/01/09 05:50:48;;;;;;;15.50;8.02;;;-6.50;99.90;;;;;;4988136;28;20034;-36
2024/01/09 05:53:17;;;;;;;22.02;10.98;;;-6.40;99.90;;;;;;4993281;28;20038;-37
2024/01/09 05:55:42;;;;;;;;;;;-6.50;99.90;;;;;;5006206;28;20061;-34
2024/01/09 05:58:08;;;;;;;20.33;11.57;;;-6.50;99.90;;;;;;5003048;28;19944;-34
2024/01/09 06:00:35;;;;;;;24.50;11.98;;;-6.60;99.90;;;;;;4985160;28;20052;-34
2024/01/09 06:03:02;;;;;;;21.48;11.40;;;-6.60;99.90;;;;;;5005408;28;20041;-33
2024/01/09 06:05:28;;;;;;;21.70;10.95;;;-6.60;99.90;;;;;;4999321;28;20022;-36
2024/01/09 06:07:57;;;;;;;22.55;11.82;;;-6.60;99.90;;;;;;5007941;28;20053;-37
2024/01/09 06:10:26;;;;;;;16.80;9.57;;;-6.70;99.90;;;;;;4984934;28;20230;-33
2024/01/09 06:13:01;;;;;;;21.38;11.23;;;-6.70;99.90;;;;;;4983568;28;20539;-38
2024/01/09 06:15:31;;;;;;;18.08;9.27;;;-6.70;99.90;;;;;;5002608;28;20026;-35
2024/01/09 06:18:07;;;;;;;20.65;10.13;;;-6.70;99.90;;;;;;5000182;28;20631;-33
2024/01/09 06:20:45;;;;;;;15.32;8.88;;;-6.70;99.90;;;;;;4975771;28;20058;-37
2024/01/09 06:23:10;;;;;;;18.90;9.80;;;-6.70;99.90;;;;;;4989292;28;20243;-35
2024/01/09 06:25:36;;;;;;;23.90;10.23;;;-6.60;99.90;;;;;;4997315;28;20034;-32
2024/01/09 06:28:02;;;;;;;15.25;7.63;;;-6.60;99.90;;;;;;5002432;28;20459;-32
2024/01/09 06:30:28;;;;;;;23.08;11.20;;;-6.60;99.90;;;;;;4997201;28;20823;-33
2024/01/09 06:32:54;;;;;;;21.40;11.73;;;-6.60;99.90;;;;;;4998897;28;20133;-39
2024/01/09 06:35:23;;;;;;;21.30;11.57;;;-6.60;99.90;;;;;;5003028;28;20510;-33
2024/01/09 06:37:49;;;;;;;26.10;11.52;;;-6.60;99.90;;;;;;4982370;28;20029;-33
2024/01/09 06:40:24;;;;;;;15.05;9.98;;;-6.60;99.90;;;;;;5001316;28;20026;-38
2024/01/09 06:42:54;;;;;;;24.73;12.35;;;-6.60;99.90;;;;;;4983667;28;20045;-33
2024/01/09 06:45:19;;;;;;;18.58;9.75;;;-6.60;99.90;;;;;;4986235;28;20117;-34
2024/01/09 06:47:45;;;;;;;18.67;9.65;;;-6.60;99.90;;;;;;4996825;28;20553;-32
2024/01/09 06:50:11;;;;;;;15.05;9.25;;;-6.60;99.90;;;;;;5005384;28;20038;-34
2024/01/09 06:52:38;;;;;;;16.42;8.77;;;-6.60;99.90;;;;;;4984888;28;20492;-34
2024/01/09 06:55:04;;;;;;;15.98;7.95;;;-6.60;99.90;;;;;;4985484;28;20063;-35
2024/01/09 06:57:30;;;;;;;23.80;12.27;;;-6.60;99.90;;;;;;4999554;28;20109;-33
2024/01/09 06:59:56;;;;;;;21.55;10.57;;;-6.70;99.90;;;;;;4993207;28;20125;-35
2024/01/09 07:02:22;;;;;;;17.33;9.80;;;-6.70;99.90;;;;;;5003102;28;20038;-35
2024/01/09 07:04:48;;;;;;;18.10;9.75;;;-6.80;99.90;;;;;;5003881;28;20034;-33
2024/01/09 07:07:14;;;;;;;14.25;8.95;;;-6.80;99.90;;;;;;5002308;28;20030;-34
2024/01/09 07:09:40;;;;;;;9.90;5.97;;;-6.80;99.90;;;;;;4991421;28;20028;-33
2024/01/09 07:12:09;;;;;;;20.45;9.23;;;-6.80;99.90;;;;;;4997208;28;20104;-35
2024/01/09 07:14:36;;;;;;;15.93;7.03;;;-6.80;99.90;;;;;;5002719;28;20058;-33
2024/01/09 07:17:03;;;;;;;13.48;8.18;;;-6.90;99.90;;;;;;5004081;28;20116;-35
2024/01/09 07:19:30;;;;;;;19.95;10.30;;;-6.90;99.90;;;;;;5007021;28;20029;-33
2024/01/09 07:21:56;;;;;;;17.85;10.13;;;-6.90;99.90;;;;;;4984430;28;20034;-32
2024/01/09 07:24:22;;;;;;;13.38;6.93;;;-6.90;99.90;;;;;;4982920;28;20144;-32
2024/01/09 07:26:47;;;;;;;16.60;7.93;;;-7.00;99.90;;;;;;5002936;28;20566;-33
2024/01/09 07:29:16;;;;;;;20.88;9.90;;;-7.00;99.90;;;;;;4998675;28;20476;-32
2024/01/09 07:31:42;;;;;;;;;;;-7.00;99.90;;;;;;5004518;28;20038;-35
2024/01/09 07:34:08;;;;;;;20.40;9.05;;;-7.00;99.90;;;;;;5004537;28;19913;-35
2024/01/09 07:36:33;;;;;;;21.65;10.27;;;-7.00;99.90;;;;;;5002679;28;20110;-35
2024/01/09 07:38:59;;;;;;;16.67;9.85;;;-7.00;99.90;;;;;;5004778;28;20487;-32
2024/01/09 07:41:25;;;;;;;16.45;9.65;;;-7.00;99.90;;;;;;5003814;28;20109;-39
2024/01/09 07:43:51;;;;;;;14.48;8.80;;;-7.00;99.90;;;;;;5009099;28;20095;-39
2024/01/09 07:46:17;;;;;;;19.83;10.48;;;-7.00;99.90;;;;;;5004747;28;20161;-38
2024/01/09 07:48:43;;;;;;;15.55;7.88;;;-7.00;99.90;;;;;;5000288;28;20018;-39
2024/01/09 07:51:09;;;;;;;14.48;8.82;;;-7.00;99.90;;;;;;5005497;28;20419;-40
2024/01/09 07:53:34;;;;;;;12.13;6.30;;;-7.10;99.90;;;;;;4998646;28;20061;-42
2024/01/09 07:56:00;;;;;;;19.52;10.30;;;-7.10;99.90;;;;;;5001231;28;20301;-41
2024/01/09 07:58:26;;;;;;;17.48;8.90;;;-7.00;99.90;;;;;;5004338;28;20025;-40
2024/01/09 08:00:51;;;;;;;9.98;7.95;;;-7.00;99.90;;;;;;5001656;28;20088;-36
2024/01/09 08:03:17;;;;;;;12.32;7.60;;;-7.00;99.90;;;;;;5001739;28;20305;-41
2024/01/09 08:05:43;;;;;;;15.07;8.85;;;-6.90;99.90;;;;;;4997110;28;20029;-39
2024/01/09 08:08:08;;;;;;;12.05;7.22;;;-6.90;99.90;;;;;;5003358;28;20018;-41
2024/01/09 08:10:34;;;;;;;11.73;8.57;;;-6.90;99.90;;;;;;4994723;28;20056;-42
2024/01/09 08:13:00;;;;;;;23.83;9.02;;;-6.80;99.90;;;;;;5004004;28;20441;-43
2024/01/09 08:15:26;;;;;;;15.88;8.95;;;-6.80;99.90;;;;;;4996700;28;20030;-41
2024/01/09 08:17:52;;;;;;;10.45;6.47;;;-6.70;99.90;;;;;;5005273;28;20040;-34
2024/01/09 08:20:18;;;;;;;19.63;9.30;;;-6.60;99.90;;;;;;4997412;28;20495;-42
2024/01/09 08:22:43;;;;;;;20.45;8.70;;;-6.50;99.90;;;;;;4988784;28;20026;-43
2024/01/09 08:25:09;;;;;;;9.57;6.35;;;-6.40;99.90;;;;;;4997492;28;20023;-40
2024/01/09 08:27:35;;;;;;;11.38;5.85;;;-6.50;99.90;;;;;;5005873;28;20017;-39
2024/01/09 08:30:01;;;;;;;12.98;7.57;;;-6.50;99.90;;;;;;5000277;28;20109;-41
2024/01/09 08:32:26;;;;;;;19.98;10.05;;;-6.40;99.90;;;;;;4996112;28;20042;-41
2024/01/09 08:34:52;;;;;;;14.93;7.53;;;-6.40;99.90;;;;;;5002544;28;20025;-35
2024/01/09 08:37:18;;;;;;;15.18;8.35;;;-6.30;99.90;;;;;;5007746;28;20041;-41
2024/01/09 08:39:44;;;;;;;18.63;9.63;;;-6.30;99.90;;;;;;4998770;28;20021;-41
2024/01/09 08:42:09;;;;;;;14.20;7.32;;;-6.30;99.90;;;;;;5003376;28;20033;-41
2024/01/09 08:44:35;;;;;;;12.75;6.82;;;-6.30;99.90;;;;;;5001187;28;20026;-38
2024/01/09 08:47:01;;;;;;;14.05;8.73;;;-6.30;99.90;;;;;;4997246;28;20444;-39
2024/01/09 08:49:27;;;;;;;13.85;6.22;;;-6.20;99.90;;;;;;5003325;28;20030;-39
2024/01/09 08:51:53;;;;;;;12.70;7.22;;;-6.20;99.90;;;;;;5000653;28;21420;-32
2024/01/09 08:54:20;;;;;;;15.73;8.70;;;-6.20;99.90;;;;;;5002229;28;20026;-32
2024/01/09 08:56:46;;;;;;;13.00;6.60;;;-6.20;99.90;;;;;;5000793;28;20034;-34
2024/01/09 08:59:11;;;;;;;19.77;11.32;;;-6.10;99.90;;;;;;4988445;28;20030;-34
2024/01/09 09:01:37;;;;;;;9.18;6.65;;;-6.10;99.90;;;;;;5000731;28;21569;-35
2024/01/09 09:04:07;;;;;;;21.92;10.27;;;-6.10;99.90;;;;;;4983017;28;20057;-32
2024/01/09 09:06:33;;;;;;;14.15;7.10;;;-6.10;99.90;;;;;;4983002;28;20165;-32
2024/01/09 09:08:59;;;;;;;17.77;9.07;;;-6.00;99.90;;;;;;5003873;28;20142;-33
2024/01/09 09:11:32;;;;;;;24.60;12.50;;;-6.00;99.90;;;;;;4998023;28;20335;-33
2024/01/09 09:13:59;;;;;;;19.65;9.02;;;-6.00;99.90;;;;;;4995664;28;20018;-32
2024/01/09 09:16:28;;;;;;;19.42;9.80;;;-6.00;99.90;;;;;;5004269;28;20594;-33
2024/01/09 09:18:55;;;;;;;22.27;12.25;;;-6.00;99.90;;;;;;4998330;28;20116;-33
2024/01/09 09:21:21;;;;;;;18.35;9.98;;;-5.90;99.90;;;;;;5005679;28;20040;-32
2024/01/09 09:23:47;;;;;;;12.73;7.00;;;-5.90;99.90;;;;;;4992976;28;20026;-33
2024/01/09 09:26:13;;;;;;;17.88;9.55;;;-5.90;99.90;;;;;;4999532;28;20022;-33
2024/01/09 09:28:40;;;;;;;20.77;11.27;;;-5.90;99.90;;;;;;4998920;28;20070;-34
2024/01/09 09:31:06;;;;;;;16.40;9.65;;;-5.90;99.90;;;;;;4984415;28;20062;-37
2024/01/09 09:33:33;;;;;;;11.27;6.35;;;-5.90;99.90;;;;;;5002698;28;20054;-33
2024/01/09 09:36:06;;;;;;;15.20;7.78;;;-5.80;99.90;;;;;;5000740;28;20030;-32
2024/01/09 09:38:33;;;;;;;17.25;9.18;;;-5.80;99.90;;;;;;5004408;28;20455;-32
2024/01/09 09:41:08;;;;;;;17.92;11.32;;;-5.80;99.90;;;;;;4998427;28;20069;-34
2024/01/09 09:43:38;;;;;;;15.70;9.20;;;-5.70;99.90;;;;;;4998589;28;20176;-33
2024/01/09 09:46:12;;;;;;;18.58;9.88;;;-5.70;99.90;;;;;;4996250;28;20522;-33
2024/01/09 09:48:39;;;;;;;18.15;7.53;;;-5.70;99.90;;;;;;4986671;28;20491;-32
2024/01/09 09:51:05;;;;;;;14.02;8.02;;;-5.70;99.90;;;;;;4994987;28;20026;-32
2024/01/09 09:53:32;;;;;;;18.08;8.30;;;-5.70;99.90;;;;;;4984263;28;20022;-35
2024/01/09 09:55:58;;;;;;;17.48;8.98;;;-5.60;99.90;;;;;;4995933;28;20113;-32
2024/01/09 09:58:23;;;;;;;10.57;7.53;;;-5.50;99.90;;;;;;5007281;28;20029;-36
2024/01/09 10:00:52;;;;;;;20.17;10.55;;;-5.50;99.90;;;;;;4995712;28;20042;-32
2024/01/09 10:03:22;;;;;;;24.88;12.40;;;-5.50;99.90;;;;;;4985322;28;20117;-34
2024/01/09 10:06:04;;;;;;;14.05;7.75;;;-5.50;99.90;;;;;;4996972;28;20023;-34
2024/01/09 10:08:33;;;;;;;9.20;7.15;;;-5.50;99.90;;;;;;5000063;28;20529;-33
2024/01/09 10:11:02;;;;;;;18.40;10.85;;;-5.40;99.90;;;;;;5003868;28;20025;-33
2024/01/09 10:14:04;;;;;;;19.92;10.60;;;-5.40;99.90;;;;;;4996292;28;20609;-36
2024/01/09 10:16:26;;;;;;;16.42;8.60;;;-5.40;99.90;;;;;;4996870;28;20142;-34
2024/01/09 10:19:02;;;;;;;18.15;9.07;;;-5.40;99.90;;;;;;4995214;28;20050;-36
2024/01/09 10:21:27;;;;;;;17.17;10.05;;;-5.30;99.90;;;;;;5000140;28;20038;-35
2024/01/09 10:23:56;;;;;;;16.58;8.80;;;-5.30;99.90;;;;;;4996400;28;20044;-34
2024/01/09 10:26:26;;;;;;;18.90;10.52;;;-5.30;99.90;;;;;;5001359;28;20037;-34
2024/01/09 10:28:58;;;;;;;12.07;8.20;;;-5.20;99.90;;;;;;4999107;28;20048;-36
2024/01/09 10:31:24;;;;;;;15.75;10.35;;;-5.20;99.90;;;;;;4997497;28;20026;-33
2024/01/09 10:33:49;;;;;;;13.10;7.25;;;-5.20;99.90;;;;;;5007824;28;20140;-31
2024/01/09 10:36:27;;;;;;;19.75;7.50;;;-5.20;99.90;;;;;;5008930;28;20038;-31
2024/01/09 10:39:06;;;;;;;18.02;10.73;;;-5.20;99.90;;;;;;4985212;28;20084;-35
2024/01/09 10:41:33;;;;;;;13.55;8.05;;;-5.20;99.90;;;;;;5003383;28;20030;-33
2024/01/09 10:44:05;;;;;;;19.80;11.55;;;-5.20;99.90;;;;;;4996958;28;20026;-33
2024/01/09 10:46:37;;;;;;;13.57;7.75;;;-5.20;99.90;;;;;;4990461;28;20138;-32
2024/01/09 10:49:06;;;;;;;24.10;12.63;;;-5.10;99.90;;;;;;4962613;28;20094;-32
2024/01/09 10:51:34;;;;;;;16.73;10.75;;;-5.10;99.90;;;;;;4957399;28;20052;-34
2024/01/09 10:54:03;;;;;;;8.02;6.13;;;-5.10;99.90;;;;;;4968287;28;20034;-33
2024/01/09 10:56:30;;;;;;;;;;;-5.00;99.90;;;;;;4950480;28;20041;-33
2024/01/09 10:58:57;;;;;;;12.70;6.55;;;-5.00;99.90;;;;;;4984582;28;20286;-34
2024/01/09 11:01:23;;;;;;;15.10;9.88;;;-5.00;99.90;;;;;;4982946;28;20034;-34
2024/01/09 11:03:48;;;;;;;19.90;10.05;;;-5.00;99.90;;;;;;4979134;28;20105;-40
2024/01/09 11:06:18;;;;;;;19.23;10.45;;;-4.90;99.90;;;;;;4982361;28;20054;-40
2024/01/09 11:08:50;;;;;;;10.68;8.35;;;-4.90;99.90;;;;;;4984503;28;20029;-40
2024/01/09 11:11:18;;;;;;;16.00;10.25;;;-4.90;99.90;;;;;;4971211;28;20034;-40
2024/01/09 11:13:57;;;;;;;12.48;7.82;;;-4.90;99.90;;;;;;4984060;28;20029;-33
2024/01/09 11:16:25;;;;;;;19.27;10.43;;;-4.80;99.90;;;;;;4984116;28;20168;-33
2024/01/09 11:18:53;;;;;;;18.63;10.30;;;-4.80;99.90;;;;;;4978804;28;20034;-36
2024/01/09 11:21:34;;;;;;;14.07;9.15;;;-4.70;99.90;;;;;;4955260;28;20072;-35
2024/01/09 11:24:13;;;;;;;12.60;6.47;;;-4.70;99.90;;;;;;4970501;28;20453;-33
2024/01/09 11:26:39;;;;;;;;;;;-4.70;99.90;;;;;;4969677;28;20023;-33
2024/01/09 11:29:05;;;;;;;12.57;7.40;;;-4.60;99.90;;;;;;4961469;28;19917;-32
2024/01/09 11:31:33;;;;;;;11.50;7.35;;;-4.60;99.90;;;;;;4969686;28;20096;-35
2024/01/09 11:34:09;;;;;;;19.77;8.15;;;-4.50;99.90;;;;;;4981507;28;20031;-35
2024/01/09 11:36:39;;;;;;;16.00;8.80;;;-4.50;99.90;;;;;;4981366;28;20549;-35
2024/01/09 11:39:07;;;;;;;8.82;5.28;;;-4.50;99.90;;;;;;4981320;28;20037;-39
2024/01/09 11:41:35;;;;;;;19.75;9.32;;;-4.50;99.90;;;;;;4980643;28;20068;-33
2024/01/09 11:44:03;;;;;;;20.25;10.30;;;-4.50;99.90;;;;;;4980725;28;20366;-34
2024/01/09 11:46:34;;;;;;;17.27;10.05;;;-4.50;99.90;;;;;;4972054;28;20077;-34
2024/01/09 11:49:06;;;;;;;14.38;6.90;;;-4.40;99.90;;;;;;4985845;28;20053;-32
2024/01/09 11:51:33;;;;;;;14.57;8.40;;;-4.40;99.90;;;;;;4978514;28;20022;-37
2024/01/09 11:54:01;;;;;;;11.27;7.78;;;-4.30;99.90;;;;;;4967255;28;20121;-34
2024/01/09 11:56:27;;;;;;;18.98;8.52;;;-4.30;99.90;;;;;;4979018;28;20022;-33
2024/01/09 11:58:54;;;;;;;16.42;9.02;;;-4.20;99.90;;;;;;4988290;28;20027;-36
2024/01/09 12:01:23;;;;;;;9.15;7.03;;;-4.10;99.90;;;;;;4971837;28;20456;-33
2024/01/09 12:03:53;;;;;;;16.63;9.05;;;-4.10;99.90;;;;;;4968538;28;20378;-35
2024/01/09 12:06:24;;;;;;;18.92;9.55;;;-4.10;99.90;;;;;;4980590;28;20384;-34
2024/01/09 12:08:55;;;;;;;11.00;7.55;;;-4.00;99.90;;;;;;4970216;28;20031;-33
2024/01/09 12:11:27;;;;;;;12.70;7.03;;;-4.00;99.90;;;;;;4978572;28;20023;-34
2024/01/09 12:14:07;;;;;;;13.18;8.18;;;-4.00;99.90;;;;;;4963754;28;20405;-35
2024/01/09 12:16:35;;;;;;;12.45;6.95;;;-4.00;99.90;;;;;;4987342;28;20033;-32
2024/01/09 12:19:05;;;;;;;10.07;6.97;;;-4.00;99.90;;;;;;4949643;28;20038;-34
2024/01/09 12:21:34;;;;;;;12.07;7.47;;;-3.90;99.90;;;;;;4962379;28;20590;-39
2024/01/09 12:24:13;;;;;;;13.52;7.63;;;-3.90;99.90;;;;;;4980964;28;20026;-32
2024/01/09 12:26:40;;;;;;;14.30;8.13;;;-3.90;99.90;;;;;;4986441;28;20037;-32
2024/01/09 12:29:07;;;;;;;15.10;9.73;;;-3.90;99.90;;;;;;4973473;28;20041;-36
2024/01/09 12:31:43;;;;;;;16.42;8.23;;;-3.80;99.90;;;;;;4974748;28;20472;-33
2024/01/09 12:34:10;;;;;;;8.07;6.35;;;-3.80;99.90;;;;;;4967779;28;20022;-33
2024/01/09 12:36:39;;;;;;;11.70;6.00;;;-3.70;99.90;;;;;;4974993;28;20034;-32